Latest Weather Observations for Yarram Airport

IDV60801

Issued at 11:02 am EST Tuesday 26 May 2020 (issued every 10 minutes, with the page automatically refreshed every 10 minutes)

About weather observations | Map of weather stations | Latest weather observations for VIC | Other Formats
Station Details ID: 085151 Name: YARRAM AIRPORT Lat: -38.56 Lon: 146.75 Height: 17.9 m
Data from the previous 72 hours. | See also: Recent months at Yarram Airport
Date/Time
EST
Temp
°C
App
Temp
°C
Dew
Point
°C
Rel
Hum
%
Delta-T
°C
Wind Press
QNH
hPa
Press
MSL
hPa
Rain since
9am
mm
Dir  Spd
km/h
Gust
km/h
Spd
kts
Gust
kts
26/11:00am 14.0 10.8 9.8 76 2.2 ENE 17 24 9 13 1026.4 1026.5 0.0
26/10:30am 14.3 10.8 10.1 76 2.2 NE 19 26 10 14 1026.9 1027.0 0.0
26/10:00am 13.7 11.0 10.3 80 1.8 ENE 15 20 8 11 1027.2 1027.2 0.0
26/09:30am 12.3 9.9 10.2 87 1.1 NE 13 19 7 10 1027.5 1027.5 0.0
26/09:00am 10.5 8.7 9.4 93 0.5 NNE 9 13 5 7 1027.5 1027.5 0.0
26/08:30am 9.8 8.3 9.2 96 0.3 NE 7 11 4 6 1027.2 1027.2 0.0
26/08:00am 8.4 6.8 7.8 96 0.3 NE 6 9 3 5 1027.3 1027.3 0.0
26/07:30am 7.9 5.5 7.1 95 0.4 ENE 9 9 5 5 1027.0 1027.1 0.0
26/07:00am 7.6 5.7 6.7 94 0.4 ENE 6 7 3 4 1026.9 1027.0 0.0
26/06:30am 8.9 6.7 8.0 94 0.4 NE 9 11 5 6 1026.5 1026.6 0.0
26/06:00am 9.5 7.0 8.4 93 0.5 N 11 15 6 8 1026.4 1026.5 0.0
26/05:30am 10.7 8.1 9.5 92 0.6 ENE 13 20 7 11 1026.2 1026.3 0.0
26/05:00am 10.5 8.7 9.3 92 0.6 ENE 9 13 5 7 1026.2 1026.3 0.0
26/04:30am 10.3 8.4 9.1 92 0.6 ENE 9 11 5 6 1026.0 1026.1 0.0
26/04:00am 10.6 9.2 9.4 92 0.6 NE 7 11 4 6 1026.2 1026.3 0.0
26/03:30am 10.3 8.4 8.9 91 0.7 NE 9 11 5 6 1026.2 1026.3 0.0
26/03:00am 10.3 8.7 8.7 90 0.8 NE 7 9 4 5 1026.5 1026.6 0.0
26/02:30am 9.9 9.5 8.3 90 0.8 CALM 0 0 0 0 1026.5 1026.6 0.0
26/02:00am 10.1 8.6 8.4 89 0.8 NE 6 7 3 4 1026.6 1026.7 0.0
26/01:30am 9.8 8.2 8.1 89 0.8 E 6 7 3 4 1026.7 1026.8 0.0
26/01:00am 9.4 7.1 7.3 87 1.0 NE 9 13 5 7 1026.7 1026.8 0.0
26/12:30am 11.1 8.5 7.8 80 1.6 NE 11 17 6 9 1026.9 1027.0 0.0
26/12:00am 11.2 8.5 7.3 77 1.9 ENE 11 15 6 8 1027.0 1027.1 0.0
 
Date/Time
EST
Temp
°C
App
Temp
°C
Dew
Point
°C
Rel
Hum
%
Delta-T
°C
Wind Press
QNH
hPa
Press
MSL
hPa
Rain since
9am
mm
Dir  Spd
km/h
Gust
km/h
Spd
kts
Gust
kts
25/11:30pm 10.1 7.7 8.5 90 0.8 ENE 11 19 6 10 1027.2 1027.2 0.0
25/11:00pm 9.4 7.8 8.8 96 0.3 NE 7 13 4 7 1027.4 1027.4 0.0
25/10:30pm 8.3 6.4 7.7 96 0.3 NE 7 13 4 7 1027.5 1027.5 0.0
25/10:00pm 9.2 8.9 8.6 96 0.3 CALM 0 0 0 0 1027.8 1027.8 0.0
25/09:30pm 8.9 6.8 8.3 96 0.3 N 9 11 5 6 1027.7 1027.7 0.0
25/09:00pm 9.0 7.4 8.2 95 0.4 NNE 6 7 3 4 1027.6 1027.6 0.0
25/08:30pm 8.7 7.1 7.8 94 0.4 NNE 6 7 3 4 1027.5 1027.5 0.0
25/08:00pm 9.0 7.4 7.9 93 0.5 NE 6 7 3 4 1027.2 1027.2 0.0
25/07:30pm 9.9 8.3 8.8 93 0.5 NE 7 9 4 5 1027.0 1027.1 0.0
25/07:00pm 10.0 8.3 8.4 90 0.8 NE 7 13 4 7 1026.9 1027.0 0.0
25/06:30pm 10.8 8.9 9.1 89 0.8 E 9 11 5 6 1026.7 1026.8 0.0
25/06:00pm 11.2 9.4 9.3 88 0.9 E 9 13 5 7 1026.4 1026.5 0.0
25/05:30pm 11.2 9.0 9.5 89 0.9 ESE 11 15 6 8 1026.3 1026.4 0.0
25/05:00pm 11.1 9.2 9.0 87 1.0 E 9 11 5 6 1026.1 1026.2 0.0
25/04:30pm 12.2 9.3 9.8 85 1.2 ESE 15 20 8 11 1026.0 1026.1 0.0
25/04:00pm 12.3 9.7 9.5 83 1.4 E 13 17 7 9 1025.9 1026.0 0.0
25/03:30pm 12.3 8.5 9.1 81 1.6 ESE 19 24 10 13 1025.7 1025.8 0.0
25/03:00pm 13.3 10.1 9.9 80 1.7 ESE 17 20 9 11 1025.7 1025.8 0.0
25/02:30pm 12.1 8.4 9.5 84 1.3 E 19 26 10 14 1025.9 1026.0 0.0
25/02:00pm 13.1 9.9 9.9 81 1.6 ESE 17 26 9 14 1025.6 1025.7 0.0
25/01:30pm 11.8 9.1 10.2 90 0.8 ESE 15 22 8 12 1025.9 1026.0 0.0
25/01:00pm 14.3 10.3 9.1 71 2.6 ESE 20 28 11 15 1025.8 1025.9 0.0
25/12:30pm 13.2 9.5 9.3 77 2.0 ESE 19 24 10 13 1026.0 1026.1 0.0
25/12:00pm 13.4 9.6 9.1 75 2.2 SE 19 28 10 15 1026.5 1026.6 0.0
25/11:30am 13.3 9.2 8.6 73 2.4 SE 20 24 11 13 1027.3 1027.3 0.0
25/11:00am 13.8 9.9 9.3 74 2.3 SE 20 26 11 14 1027.2 1027.2 0.0
25/10:30am 13.8 10.2 9.8 77 2.1 SE 19 24 10 13 1027.0 1027.1 0.0
25/10:00am 12.5 12.3 9.1 80 1.7 CALM 0 0 0 0 1026.8 1026.9 0.0
25/09:30am 10.3 10.2 9.4 94 0.4 CALM 0 0 0 0 1026.6 1026.7 0.0
25/09:00am 8.2 6.6 7.8 97 0.2 NW 6 7 3 4 1026.6 1026.7 0.0
25/08:30am 6.7 5.8 6.1 96 0.3 CALM 0 7 0 4 1026.4 1026.5 0.0
25/08:00am 4.9 3.6 4.3 96 0.3 CALM 0 0 0 0 1026.3 1026.4 0.0
25/07:30am 4.3 2.9 3.6 95 0.3 CALM 0 0 0 0 1026.2 1026.3 0.0
25/07:00am 5.0 2.4 4.4 96 0.3 NNW 7 9 4 5 1025.9 1026.0 0.0
25/06:30am 5.5 3.2 4.9 96 0.3 WNW 6 9 3 5 1025.7 1025.8 0.0
25/06:00am 5.2 2.8 4.5 95 0.3 WNW 6 9 3 5 1025.2 1025.3 0.0
25/05:30am 5.5 3.0 4.8 95 0.3 WNW 7 9 4 5 1025.1 1025.2 0.0
25/05:00am 6.4 5.4 5.7 95 0.3 CALM 0 0 0 0 1025.1 1025.2 0.0
25/04:30am 5.5 2.2 4.6 94 0.4 W 11 11 6 6 1024.8 1024.9 0.0
25/04:00am 5.4 4.2 4.4 93 0.4 CALM 0 0 0 0 1024.9 1025.0 0.0
25/03:30am 7.2 6.4 6.3 94 0.4 CALM 0 0 0 0 1024.9 1025.0 0.0
25/03:00am 7.3 6.5 6.4 94 0.4 CALM 0 0 0 0 1024.9 1025.0 0.0
25/02:30am 6.8 5.8 5.6 92 0.5 CALM 0 0 0 0 1024.9 1025.0 0.0
25/02:00am 8.0 7.2 6.5 90 0.7 CALM 0 0 0 0 1024.9 1025.0 0.0
25/01:30am 8.7 8.1 7.3 91 0.7 CALM 0 0 0 0 1024.9 1025.0 0.0
25/01:00am 9.3 8.8 7.9 91 0.7 CALM 0 0 0 0 1025.0 1025.1 0.0
25/12:30am 9.2 8.7 7.8 91 0.7 CALM 0 0 0 0 1025.0 1025.1 0.0
25/12:00am 8.8 7.0 7.3 90 0.7 WNW 6 7 3 4 1024.8 1024.9 0.0
 
Date/Time
EST
Temp
°C
App
Temp
°C
Dew
Point
°C
Rel
Hum
%
Delta-T
°C
Wind Press
QNH
hPa
Press
MSL
hPa
Rain since
9am
mm
Dir  Spd
km/h
Gust
km/h
Spd
kts
Gust
kts
24/11:30pm 9.2 7.4 7.8 91 0.7 WNW 7 9 4 5 1024.6 1024.7 0.0
24/11:00pm 9.1 6.5 7.7 91 0.7 WNW 11 13 6 7 1024.5 1024.6 0.0
24/10:30pm 9.2 7.0 7.8 91 0.7 WNW 9 11 5 6 1024.3 1024.4 0.0
24/10:00pm 8.9 6.6 7.4 90 0.7 WNW 9 11 5 6 1024.3 1024.4 0.0
24/09:30pm 9.3 7.0 7.6 89 0.8 W 9 11 5 6 1023.9 1024.0 0.0
24/09:00pm 10.0 8.8 8.1 88 0.9 SW 4 9 2 5 1023.8 1023.9 0.0
24/08:30pm 9.7 9.3 8.3 91 0.7 CALM 0 0 0 0 1024.0 1024.1 0.0
24/08:00pm 9.7 8.1 8.0 89 0.8 WSW 6 9 3 5 1023.9 1024.0 0.0
24/07:30pm 9.4 8.9 7.7 89 0.8 CALM 0 0 0 0 1023.7 1023.8 0.0
24/07:00pm 9.3 8.7 7.6 89 0.8 CALM 0 0 0 0 1023.6 1023.7 0.0
24/06:30pm 10.1 8.5 8.0 87 1.0 SW 6 7 3 4 1023.3 1023.4 0.0
24/06:00pm 10.5 9.4 8.4 87 1.0 ESE 4 9 2 5 1023.2 1023.3 0.0
24/05:30pm 9.2 7.1 6.6 84 1.2 S 7 11 4 6 1023.0 1023.1 0.0
24/05:00pm 10.0 6.8 6.9 81 1.5 SSE 13 17 7 9 1022.7 1022.8 0.0
24/04:30pm 11.7 7.9 7.6 76 2.0 SSE 17 20 9 11 1022.4 1022.5 0.0
24/04:00pm 12.8 8.7 7.9 72 2.4 SSE 19 26 10 14 1022.2 1022.3 0.0
24/03:30pm 13.1 9.0 7.8 70 2.6 SSE 19 24 10 13 1021.9 1022.0 0.0
24/03:00pm 13.6 9.2 7.6 67 2.9 S 20 26 11 14 1021.7 1021.8 0.0
24/02:30pm 12.6 8.8 7.5 71 2.5 SSE 17 24 9 13 1021.4 1021.5 0.0
24/02:00pm 13.2 8.7 6.8 65 3.1 SSE 20 28 11 15 1021.3 1021.4 0.0
24/01:30pm 13.2 9.3 7.2 67 2.9 SSE 17 24 9 13 1021.2 1021.3 0.0
24/01:00pm 14.3 10.6 7.8 65 3.2 SSE 17 24 9 13 1021.2 1021.3 0.0
24/12:30pm 13.4 9.5 7.2 66 3.0 SE 17 24 9 13 1021.4 1021.5 0.0
24/12:00pm 13.5 9.0 7.1 65 3.1 SSE 20 24 11 13 1021.6 1021.7 0.0
24/11:30am 13.7 10.1 8.5 71 2.6 ESE 17 22 9 12 1021.8 1021.9 0.0
24/11:00am 13.4 11.2 10.8 84 1.4 SE 13 17 7 9 1021.7 1021.8 0.0
24/10:30am 12.4 10.5 10.6 89 0.9 SE 11 15 6 8 1021.6 1021.7 0.0
24/10:00am 11.6 10.5 10.5 93 0.6 WSW 7 9 4 5 1021.3 1021.4 0.0
24/09:30am 10.5 8.7 9.4 93 0.5 WNW 9 11 5 6 1021.2 1021.3 0.0
24/09:00am 10.0 8.1 9.2 95 0.4 W 9 11 5 6 1020.9 1021.0 0.2
24/08:30am 9.3 7.3 8.7 96 0.3 W 9 11 5 6 1020.6 1020.7 0.2
24/08:00am 8.2 5.9 7.6 96 0.3 WNW 9 11 5 6 1020.2 1020.3 0.2
24/07:30am 7.9 5.6 7.3 96 0.3 WNW 9 11 5 6 1019.9 1019.9 0.2
24/07:00am 7.7 5.9 7.1 96 0.3 NNW 6 7 3 4 1019.5 1019.5 0.2
24/06:30am 7.4 5.5 6.8 96 0.3 WNW 6 9 3 5 1019.1 1019.1 0.2
24/06:00am 7.2 5.1 6.6 96 0.3 NW 7 11 4 6 1019.1 1019.1 0.2
24/05:30am 7.1 6.3 6.5 96 0.3 CALM 0 9 0 5 1018.9 1018.9 0.2
24/05:00am 6.7 4.5 6.1 96 0.3 W 7 9 4 5 1018.7 1018.7 0.2
24/04:30am 6.7 4.5 6.1 96 0.3 W 7 9 4 5 1018.4 1018.4 0.2
24/04:00am 6.8 4.3 6.4 97 0.2 W 9 13 5 7 1018.1 1018.1 0.2
24/03:30am 6.5 3.9 6.1 97 0.2 W 9 11 5 6 1018.1 1018.1 0.2
24/03:00am 5.6 3.1 5.0 96 0.3 WNW 7 7 4 4 1018.2 1018.2 0.2
24/02:30am 4.2 1.7 3.5 95 0.3 WNW 6 9 3 5 1018.3 1018.3 0.2
24/02:00am 4.9 2.3 4.3 96 0.3 WSW 7 9 4 5 1018.2 1018.2 0.2
24/01:30am 5.5 2.3 4.9 96 0.3 NW 11 13 6 7 1018.0 1018.0 0.2
24/01:00am 5.9 3.5 5.2 95 0.3 NNW 7 9 4 5 1018.0 1018.0 0.2
24/12:30am 6.0 3.2 5.3 95 0.3 NNW 9 11 5 6 1018.1 1018.1 0.2
24/12:00am 6.5 3.5 5.8 95 0.3 WNW 11 13 6 7 1018.1 1018.1 0.2
 
Date/Time
EST
Temp
°C
App
Temp
°C
Dew
Point
°C
Rel
Hum
%
Delta-T
°C
Wind Press
QNH
hPa
Press
MSL
hPa
Rain since
9am
mm
Dir  Spd
km/h
Gust
km/h
Spd
kts
Gust
kts
23/11:30pm 7.1 3.8 6.4 95 0.3 WNW 13 15 7 8 1018.1 1018.1 0.2
23/11:00pm 7.2 4.3 6.3 94 0.4 W 11 11 6 6 1018.0 1018.0 0.2
23/10:30pm 8.1 5.3 7.0 93 0.5 W 11 13 6 7 1017.8 1017.8 0.2
23/10:00pm 8.9 6.7 7.7 92 0.6 W 9 9 5 5 1017.8 1017.8 0.2
23/09:30pm 10.0 8.5 9.1 94 0.4 WNW 7 9 4 5 1017.7 1017.7 0.2
23/09:00pm 9.8 7.9 8.9 94 0.4 W 9 11 5 6 1017.4 1017.4 0.2
23/08:30pm 9.0 6.4 7.9 93 0.5 W 11 15 6 8 1017.2 1017.2 0.2
23/08:00pm 9.9 7.5 8.8 93 0.5 WSW 11 13 6 7 1017.0 1017.0 0.2
23/07:30pm 10.9 8.5 10.0 94 0.5 WSW 13 15 7 8 1016.8 1016.8 0.2
23/07:00pm 11.1 8.8 10.3 95 0.4 WSW 13 17 7 9 1016.6 1016.6 0.2
23/06:30pm 11.2 8.9 10.4 95 0.4 WSW 13 17 7 9 1016.2 1016.2 0.2
23/06:00pm 11.3 9.0 10.4 94 0.5 WSW 13 17 7 9 1015.9 1015.9 0.0
23/05:30pm 11.3 8.9 10.0 92 0.7 W 13 17 7 9 1015.5 1015.5 0.0
23/05:00pm 11.7 8.8 9.8 88 1.0 WSW 15 22 8 12 1015.4 1015.4 0.0
23/04:30pm 11.8 9.0 10.0 89 0.9 WSW 15 20 8 11 1015.4 1015.4 0.0
23/04:00pm 12.4 8.4 10.5 88 1.0 WSW 22 28 12 15 1015.3 1015.3 0.0
23/03:30pm 12.4 7.5 10.1 86 1.2 WSW 26 35 14 19 1015.3 1015.3 0.0
23/03:00pm 12.5 8.1 10.4 87 1.1 WSW 24 32 13 17 1015.3 1015.3 0.0
23/02:30pm 12.8 8.7 10.0 83 1.4 WSW 22 28 12 15 1015.1 1015.1 0.0
23/02:00pm 13.0 8.8 9.8 81 1.6 WSW 22 30 12 16 1015.2 1015.2 0.0
23/01:30pm 12.9 9.1 9.2 78 1.9 SW 19 24 10 13 1015.5 1015.5 0.0
23/01:00pm 12.9 9.4 8.8 76 2.1 SW 17 24 9 13 1015.8 1015.8 0.0
23/12:30pm 13.4 9.2 8.3 71 2.5 SW 20 28 11 15 1016.2 1016.2 0.0
23/12:00pm 13.4 9.9 8.9 74 2.3 SW 17 20 9 11 1016.7 1016.7 0.0
23/11:30am 12.9 8.6 7.1 68 2.8 SW 19 24 10 13 1017.1 1017.1 0.0

Other formats

Comma delimited format used in spreadsheet applications
http://www.bom.gov.au/fwo/IDV60801/IDV60801.95890.axf

JavaScript Object Notation format (JSON) in row-major order
http://www.bom.gov.au/fwo/IDV60801/IDV60801.95890.json

Data quality

Most of these data are generated automatically and are frequently updated. Quality checks on data are not normally performed. It is possible for incorrect values to appear. Refer to information at About Latest Weather Observations and please check the disclaimer before using these data.